Zim Vancouver — A8LK5 — position and weather

sailwx.info

Track history (hours):
 
Tides and Currents Weather Stations Pressure Air Temp Water Temp Dewpoint Dewpoint Depression Visibility Wind Speed Wind Dir Waves Ship Positions

Zim Vancouver

Last reported at 2015-Jun-24 02:17 UTC. Time now 2015-Jul-03 10:36 UTC.
Position N 32°58' E 034°33'.
Warning: this ship's position is 9 days out of date.

; draft 11.2 m.

Type: Ship. MMSI: 636013214.

Date/timePositionNaut miles runAvg speedWind from/ knotsBaromVisibWave heightAir tempDewpointWater temp
2015-Jun-24 02:17N 32°58' E 034°33'912.3
2015-Jun-24 01:33N 32°57' E 034°44'52 1.7
2015-Jun-22 18:31N 33°14' E 033°45'9 9.6
2015-Jun-22 17:34N 33°18' E 033°35'10 9.7
2015-Jun-22 16:34N 33°23' E 033°25'1010.1
2015-Jun-22 15:34N 33°27' E 033°14'1010.2
2015-Jun-22 14:34N 33°32' E 033°03'1010.1
2015-Jun-22 13:34N 33°37' E 032°52'1010.0
2015-Jun-22 12:34N 33°41' E 032°42'3010.1
2015-Jun-22 09:33N 33°55' E 032°09'2110.4
2015-Jun-22 07:34N 34°05' E 031°47'1111.3
2015-Jun-22 06:34N 34°10' E 031°35'19613.0
2015-Jun-21 15:31N 35°39' E 028°03'1313.1
2015-Jun-21 14:33N 35°44' E 027°49'2013.4
2015-Jun-21 13:04N 35°57' E 027°29'713.4
2015-Jun-21 12:33N 36°01' E 027°24'5312.9
2015-Jun-21 08:27N 36°43' E 026°44'1212.8
2015-Jun-21 07:30N 36°55' E 026°39'1212.8
2015-Jun-21 06:33N 37°05' E 026°31'1312.9
2015-Jun-21 05:33N 37°13' E 026°18'1313.1
2015-Jun-21 04:33N 37°21' E 026°05'1312.8
2015-Jun-21 03:34N 37°29' E 025°52'1312.6
2015-Jun-21 02:33N 37°41' E 025°49'23110.4
2015-Jun-20 04:27N 40°53' E 028°34'14 0.8
2015-Jun-19 11:30N 40°55' E 028°53'  
2015-Jun-17 01:23N 44°18' E 034°13'1315.8
2015-Jun-17 00:34N 44°17' E 034°31'1515.4
2015-Jun-16 23:34N 44°18' E 034°53'1515.3
2015-Jun-16 22:34N 44°17' E 035°14'1815.3
2015-Jun-16 21:22N 44°16' E 035°39'1215.3
2015-Jun-16 20:34N 44°15' E 035°57'4715.5
2015-Jun-16 17:32N 44°18' E 037°02'1615.8
2015-Jun-16 16:33N 44°25' E 037°21'1515.3
2015-Jun-16 15:34N 44°32' E 037°40'1212.0
2015-Jun-16 14:33N 44°42' E 037°49'2 1.7
2015-Jun-16 13:27N 44°44' E 037°47'0 0.0
2015-Jun-16 12:33N 44°44' E 037°47'0 0.0
2015-Jun-16 11:33N 44°44' E 037°47'0 0.0
2015-Jun-16 10:33N 44°44' E 037°47'0 0.0
2015-Jun-16 09:33N 44°44' E 037°47'0 0.0
2015-Jun-16 08:33N 44°44' E 037°47'0 0.0
2015-Jun-16 07:33N 44°44' E 037°47'0 0.0
2015-Jun-16 06:33N 44°44' E 037°47'0 0.0
2015-Jun-16 05:33N 44°44' E 037°47'0 0.0
2015-Jun-16 04:33N 44°44' E 037°47'0 0.0
2015-Jun-16 03:33N 44°44' E 037°47'0 0.0
2015-Jun-16 02:33N 44°44' E 037°47'0 0.0
2015-Jun-16 01:33N 44°44' E 037°47'0 0.0
2015-Jun-16 00:33N 44°44' E 037°47'0 0.0
2015-Jun-15 23:33N 44°44' E 037°47'0 0.0
2015-Jun-15 22:33N 44°44' E 037°47'0 0.0
2015-Jun-15 21:33N 44°44' E 037°47'0 0.0
2015-Jun-15 20:33N 44°44' E 037°47'0 0.0
2015-Jun-15 19:33N 44°44' E 037°47'0 0.0
2015-Jun-15 18:33N 44°44' E 037°47'0 0.0
2015-Jun-15 17:33N 44°44' E 037°47'0 0.0
2015-Jun-15 16:33N 44°44' E 037°47'0 0.0
2015-Jun-15 15:33N 44°44' E 037°47'0 0.0
2015-Jun-15 14:33N 44°44' E 037°47'0 0.0
2015-Jun-15 13:33N 44°44' E 037°47'0 0.0
2015-Jun-15 12:33N 44°44' E 037°47'0 0.0
2015-Jun-15 11:33N 44°44' E 037°47'0 0.0
2015-Jun-15 10:33N 44°44' E 037°47'0 0.0
2015-Jun-15 09:33N 44°44' E 037°47'0 0.0
2015-Jun-15 08:30N 44°44' E 037°47'0 0.0
2015-Jun-15 07:33N 44°44' E 037°47'0 0.0
2015-Jun-15 06:33N 44°44' E 037°47'0 0.0
2015-Jun-15 05:33N 44°44' E 037°47'0 0.0
2015-Jun-15 04:33N 44°44' E 037°47'0 0.0
2015-Jun-15 03:33N 44°44' E 037°47'0 0.0
2015-Jun-15 02:33N 44°44' E 037°47'0 0.0
2015-Jun-15 01:33N 44°44' E 037°47'0 0.0
2015-Jun-15 00:33N 44°44' E 037°47'0 0.0
2015-Jun-14 23:33N 44°44' E 037°47'0 0.0
2015-Jun-14 22:33N 44°44' E 037°47'0 0.0
2015-Jun-14 21:33N 44°44' E 037°47'0 0.0
2015-Jun-14 20:33N 44°44' E 037°47'0 0.0
2015-Jun-14 19:33N 44°44' E 037°47'0 0.0
2015-Jun-14 18:33N 44°44' E 037°47'0 0.0
2015-Jun-14 17:33N 44°44' E 037°47'0 0.0
2015-Jun-14 16:33N 44°44' E 037°47'0 0.0
2015-Jun-14 15:33N 44°44' E 037°47'0 0.0
2015-Jun-14 14:33N 44°44' E 037°47'0 0.1
2015-Jun-14 13:33N 44°44' E 037°47'5 5.3
2015-Jun-14 12:33N 44°39' E 037°51'4 4.1
2015-Jun-14 11:33N 44°35' E 037°52'1110.9
2015-Jun-14 10:34N 44°29' E 037°39'1717.1
2015-Jun-14 09:34N 44°21' E 037°18'5417.5
2015-Jun-14 06:28N 43°55' E 036°11'1917.4
2015-Jun-14 05:22N 43°47' E 035°48'1817.0
2015-Jun-14 04:20N 43°38' E 035°26'2116.7
2015-Jun-14 03:06N 43°29' E 035°01'1017.0
2015-Jun-14 02:32N 43°25' E 034°49'  
Track history (hours):
 
Tides and Currents Weather Stations Pressure Air Temp Water Temp Dewpoint Dewpoint Depression Visibility Wind Speed Wind Dir Waves Ship Positions

Zim Vancouver

Last reported at 2015-Jun-24 02:17 UTC. Time now 2015-Jul-03 10:36 UTC.
Position N 32°58' E 034°33'.
Warning: this ship's position is 9 days out of date.

; draft 11.2 m.

Type: Ship. MMSI: 636013214.

Date/timePositionNaut miles runAvg speedWind from/ knotsBaromVisibWave heightAir tempDewpointWater temp
2015-Jun-24 02:17N 32°58' E 034°33'912.3
2015-Jun-24 01:33N 32°57' E 034°44'52 1.7
2015-Jun-22 18:31N 33°14' E 033°45'9 9.6
2015-Jun-22 17:34N 33°18' E 033°35'10 9.7
2015-Jun-22 16:34N 33°23' E 033°25'1010.1
2015-Jun-22 15:34N 33°27' E 033°14'1010.2
2015-Jun-22 14:34N 33°32' E 033°03'1010.1
2015-Jun-22 13:34N 33°37' E 032°52'1010.0
2015-Jun-22 12:34N 33°41' E 032°42'3010.1
2015-Jun-22 09:33N 33°55' E 032°09'2110.4
2015-Jun-22 07:34N 34°05' E 031°47'1111.3
2015-Jun-22 06:34N 34°10' E 031°35'19613.0
2015-Jun-21 15:31N 35°39' E 028°03'1313.1
2015-Jun-21 14:33N 35°44' E 027°49'2013.4
2015-Jun-21 13:04N 35°57' E 027°29'713.4
2015-Jun-21 12:33N 36°01' E 027°24'5312.9
2015-Jun-21 08:27N 36°43' E 026°44'1212.8
2015-Jun-21 07:30N 36°55' E 026°39'1212.8
2015-Jun-21 06:33N 37°05' E 026°31'1312.9
2015-Jun-21 05:33N 37°13' E 026°18'1313.1
2015-Jun-21 04:33N 37°21' E 026°05'1312.8
2015-Jun-21 03:34N 37°29' E 025°52'1312.6
2015-Jun-21 02:33N 37°41' E 025°49'23110.4
2015-Jun-20 04:27N 40°53' E 028°34'14 0.8
2015-Jun-19 11:30N 40°55' E 028°53'  
2015-Jun-17 01:23N 44°18' E 034°13'1315.8
2015-Jun-17 00:34N 44°17' E 034°31'1515.4
2015-Jun-16 23:34N 44°18' E 034°53'1515.3
2015-Jun-16 22:34N 44°17' E 035°14'1815.3
2015-Jun-16 21:22N 44°16' E 035°39'1215.3
2015-Jun-16 20:34N 44°15' E 035°57'4715.5
2015-Jun-16 17:32N 44°18' E 037°02'1615.8
2015-Jun-16 16:33N 44°25' E 037°21'1515.3
2015-Jun-16 15:34N 44°32' E 037°40'1212.0
2015-Jun-16 14:33N 44°42' E 037°49'2 1.7
2015-Jun-16 13:27N 44°44' E 037°47'0 0.0
2015-Jun-16 12:33N 44°44' E 037°47'0 0.0
2015-Jun-16 11:33N 44°44' E 037°47'0 0.0
2015-Jun-16 10:33N 44°44' E 037°47'0 0.0
2015-Jun-16 09:33N 44°44' E 037°47'0 0.0
2015-Jun-16 08:33N 44°44' E 037°47'0 0.0
2015-Jun-16 07:33N 44°44' E 037°47'0 0.0
2015-Jun-16 06:33N 44°44' E 037°47'0 0.0
2015-Jun-16 05:33N 44°44' E 037°47'0 0.0
2015-Jun-16 04:33N 44°44' E 037°47'0 0.0
2015-Jun-16 03:33N 44°44' E 037°47'0 0.0
2015-Jun-16 02:33N 44°44' E 037°47'0 0.0
2015-Jun-16 01:33N 44°44' E 037°47'0 0.0
2015-Jun-16 00:33N 44°44' E 037°47'0 0.0
2015-Jun-15 23:33N 44°44' E 037°47'0 0.0
2015-Jun-15 22:33N 44°44' E 037°47'0 0.0
2015-Jun-15 21:33N 44°44' E 037°47'0 0.0
2015-Jun-15 20:33N 44°44' E 037°47'0 0.0
2015-Jun-15 19:33N 44°44' E 037°47'0 0.0
2015-Jun-15 18:33N 44°44' E 037°47'0 0.0
2015-Jun-15 17:33N 44°44' E 037°47'0 0.0
2015-Jun-15 16:33N 44°44' E 037°47'0 0.0
2015-Jun-15 15:33N 44°44' E 037°47'0 0.0
2015-Jun-15 14:33N 44°44' E 037°47'0 0.0
2015-Jun-15 13:33N 44°44' E 037°47'0 0.0
2015-Jun-15 12:33N 44°44' E 037°47'0 0.0
2015-Jun-15 11:33N 44°44' E 037°47'0 0.0
2015-Jun-15 10:33N 44°44' E 037°47'0 0.0
2015-Jun-15 09:33N 44°44' E 037°47'0 0.0
2015-Jun-15 08:30N 44°44' E 037°47'0 0.0
2015-Jun-15 07:33N 44°44' E 037°47'0 0.0
2015-Jun-15 06:33N 44°44' E 037°47'0 0.0
2015-Jun-15 05:33N 44°44' E 037°47'0 0.0
2015-Jun-15 04:33N 44°44' E 037°47'0 0.0
2015-Jun-15 03:33N 44°44' E 037°47'0 0.0
2015-Jun-15 02:33N 44°44' E 037°47'0 0.0
2015-Jun-15 01:33N 44°44' E 037°47'0 0.0
2015-Jun-15 00:33N 44°44' E 037°47'0 0.0
2015-Jun-14 23:33N 44°44' E 037°47'0 0.0
2015-Jun-14 22:33N 44°44' E 037°47'0 0.0
2015-Jun-14 21:33N 44°44' E 037°47'0 0.0
2015-Jun-14 20:33N 44°44' E 037°47'0 0.0
2015-Jun-14 19:33N 44°44' E 037°47'0 0.0
2015-Jun-14 18:33N 44°44' E 037°47'0 0.0
2015-Jun-14 17:33N 44°44' E 037°47'0 0.0
2015-Jun-14 16:33N 44°44' E 037°47'0 0.0
2015-Jun-14 15:33N 44°44' E 037°47'0 0.0
2015-Jun-14 14:33N 44°44' E 037°47'0 0.1
2015-Jun-14 13:33N 44°44' E 037°47'5 5.3
2015-Jun-14 12:33N 44°39' E 037°51'4 4.1
2015-Jun-14 11:33N 44°35' E 037°52'1110.9
2015-Jun-14 10:34N 44°29' E 037°39'1717.1
2015-Jun-14 09:34N 44°21' E 037°18'5417.5
2015-Jun-14 06:28N 43°55' E 036°11'1917.4
2015-Jun-14 05:22N 43°47' E 035°48'1817.0
2015-Jun-14 04:20N 43°38' E 035°26'2116.7
2015-Jun-14 03:06N 43°29' E 035°01'1017.0
2015-Jun-14 02:32N 43°25' E 034°49'  

Dump ship's entire track history